Time;durP1;ratioP1;P1;durP2;ratioP2;P2;SDS_P1;SDS_P2;PMS_P1;PMS_P2;Temp;Humidity;BMP_temperature;BMP_pressure;BME280_temperature;BME280_humidity;BME280_pressure;Samples;Min_cycle;Max_cycle;Signal;HPM_P1;HPM_P2
2020/12/22 00:02:15;;;;;;;10.10;9.20;;;;;;;11.59;100.00;100545.25;5024537;28;20122;-76
2020/12/22 00:04:40;;;;;;;11.23;9.30;;;;;;;11.63;100.00;100543.09;5031378;28;20477;-75
2020/12/22 00:07:06;;;;;;;10.75;8.70;;;;;;;11.61;100.00;100532.53;5042749;28;20179;-76
2020/12/22 00:09:31;;;;;;;10.75;8.38;;;;;;;11.56;100.00;100516.19;5035923;28;20040;-76
2020/12/22 00:11:57;;;;;;;10.30;9.07;;;;;;;11.62;100.00;100523.53;5020860;28;20128;-76
2020/12/22 00:14:22;;;;;;;10.35;8.57;;;;;;;11.62;100.00;100523.53;5018422;28;20133;-75
2020/12/22 00:16:48;;;;;;;8.82;7.95;;;;;;;11.61;100.00;100516.50;5026973;28;20204;-76
2020/12/22 00:19:13;;;;;;;10.32;8.52;;;;;;;11.62;100.00;100510.16;4982546;28;20034;-76
2020/12/22 00:21:39;;;;;;;9.35;8.52;;;;;;;11.65;100.00;100517.03;5022345;28;21082;-75
2020/12/22 00:24:04;;;;;;;9.23;7.55;;;;;;;11.57;100.00;100496.47;5023084;28;20124;-75
2020/12/22 00:26:30;;;;;;;10.35;9.25;;;;;;;11.69;100.00;100517.50;5051453;28;20485;-76
2020/12/22 00:28:55;;;;;;;9.68;8.77;;;;;;;11.49;100.00;100480.44;5025277;28;20115;-76
2020/12/22 00:31:21;;;;;;;10.60;8.82;;;;;;;11.67;100.00;100504.34;5008639;28;20120;-74
2020/12/22 00:33:46;;;;;;;8.85;7.97;;;;;;;11.66;100.00;100501.81;5023062;28;20052;-75
2020/12/22 00:36:12;;;;;;;9.02;7.88;;;;;;;11.63;100.00;100509.16;5023056;28;20116;-74
2020/12/22 00:38:38;;;;;;;7.75;6.30;;;;;;;11.64;100.00;100496.63;4993804;28;20036;-76
2020/12/22 00:41:03;;;;;;;6.45;5.82;;;;;;;11.65;100.00;100503.66;5033595;28;20115;-76
2020/12/22 00:43:29;;;;;;;10.23;6.57;;;;;;;11.67;100.00;100511.50;5025950;28;20107;-76
2020/12/22 00:45:54;;;;;;;7.53;6.78;;;;;;;11.66;100.00;100497.31;5022201;28;20127;-76
2020/12/22 00:48:20;;;;;;;7.03;6.28;;;;;;;11.60;100.00;100493.44;4998815;28;20033;-76
2020/12/22 00:50:45;;;;;;;7.28;6.20;;;;;;;11.69;100.00;100504.16;4998308;28;20346;-76
2020/12/22 00:53:11;;;;;;;7.43;6.32;;;;;;;11.69;100.00;100501.47;5018081;28;20503;-76
2020/12/22 00:55:36;;;;;;;7.20;6.50;;;;;;;11.70;100.00;100489.78;5002814;28;20108;-76
2020/12/22 00:58:02;;;;;;;6.65;6.07;;;;;;;11.71;100.00;100491.47;5043241;28;20131;-76
2020/12/22 01:00:27;;;;;;;7.97;5.70;;;;;;;11.71;100.00;100489.59;5031204;28;20133;-75
2020/12/22 01:02:53;;;;;;;8.13;5.57;;;;;;;11.69;100.00;100498.81;5033289;28;20120;-75
2020/12/22 01:05:18;;;;;;;8.18;6.65;;;;;;;11.67;100.00;100488.28;5036280;28;20116;-75
2020/12/22 01:07:44;;;;;;;7.07;6.35;;;;;;;11.69;100.00;100480.91;5025053;28;20104;-75
2020/12/22 01:10:09;;;;;;;7.07;6.38;;;;;;;11.70;100.00;100481.75;5027557;28;20124;-75
2020/12/22 01:12:35;;;;;;;6.75;5.70;;;;;;;11.68;100.00;100481.09;5028228;28;20136;-75
2020/12/22 01:15:01;;;;;;;7.03;5.70;;;;;;;11.71;100.00;100492.28;5023386;28;22140;-75
2020/12/22 01:17:26;;;;;;;9.35;5.97;;;;;;;11.71;100.00;100489.59;5006470;28;20065;-75
2020/12/22 01:19:53;;;;;;;5.68;5.10;;;;;;;11.72;100.00;100491.28;5034194;28;20120;-73
2020/12/22 01:22:19;;;;;;;4.35;3.92;;;;;;;11.42;100.00;100442.03;5034531;28;20042;-74
2020/12/22 01:24:44;;;;;;;5.10;3.83;;;;;;;11.72;100.00;100490.47;5019678;28;20048;-76
2020/12/22 01:27:10;;;;;;;4.50;3.85;;;;;;;11.75;100.00;100498.13;5037026;28;20128;-76
2020/12/22 01:29:35;;;;;;;4.75;4.32;;;;;;;11.75;100.00;100508.81;5018735;28;20563;-75
2020/12/22 01:32:01;;;;;;;6.20;4.15;;;;;;;11.75;100.00;100508.81;5042531;28;20558;-76
2020/12/22 01:34:27;;;;;;;4.75;4.45;;;;;;;11.72;100.00;100507.31;5036434;28;20647;-74
2020/12/22 01:36:52;;;;;;;5.38;4.88;;;;;;;11.77;100.00;100514.81;5020768;28;20124;-76
2020/12/22 01:39:18;;;;;;;6.07;5.47;;;;;;;11.76;100.00;100516.69;5012732;28;20124;-74
2020/12/22 01:41:43;;;;;;;6.30;5.70;;;;;;;11.77;100.00;100514.81;5016700;28;20081;-74
2020/12/22 01:44:14;;;;;;;7.30;5.80;;;;;;;11.79;100.00;100532.38;5016147;28;20115;-74
2020/12/22 01:46:47;;;;;;;5.05;4.65;;;;;;;11.73;100.00;100511.66;5003888;28;20041;-76
2020/12/22 01:49:25;;;;;;;5.60;4.40;;;;;;;11.70;100.00;100529.88;4995885;28;20573;-74
2020/12/22 01:51:52;;;;;;;5.03;3.60;;;;;;;11.70;100.00;100517.34;5011806;28;20040;-77
2020/12/22 01:54:18;;;;;;;3.67;3.38;;;;;;;11.84;100.00;100531.03;5019627;28;20033;-76
2020/12/22 01:56:44;;;;;;;3.75;3.45;;;;;;;11.82;100.00;100543.72;5024636;28;20499;-76
2020/12/22 01:59:09;;;;;;;4.38;3.70;;;;;;;11.84;100.00;100534.53;4987867;28;20471;-76
2020/12/22 02:01:35;;;;;;;5.07;3.20;;;;;;;11.85;100.00;100530.03;5035821;28;20179;-76
2020/12/22 02:04:01;;;;;;;9.20;3.25;;;;;;;11.85;100.00;100530.88;4985232;28;20041;-76
2020/12/22 02:06:30;;;;;;;3.83;2.90;;;;;;;11.63;100.00;100513.69;5031118;28;20560;-76
2020/12/22 02:08:56;;;;;;;3.75;2.63;;;;;;;11.68;100.00;100521.19;5023342;28;20384;-76
2020/12/22 02:11:28;;;;;;;3.85;2.83;;;;;;;11.84;100.00;100547.06;5003683;28;20091;-76
2020/12/22 02:13:54;;;;;;;4.25;2.40;;;;;;;11.82;100.00;100543.72;5011702;28;20049;-76
2020/12/22 02:16:20;;;;;;;4.93;2.47;;;;;;;11.74;100.00;100539.25;5023212;28;20036;-74
2020/12/22 02:18:46;;;;;;;6.78;2.40;;;;;;;11.80;100.00;100549.25;5020796;28;20029;-76
2020/12/22 02:21:12;;;;;;;4.80;2.30;;;;;;;11.67;100.00;100533.72;5035056;28;20033;-76
2020/12/22 02:23:37;;;;;;;6.07;2.38;;;;;;;11.74;100.00;100548.06;5022150;28;20030;-76
2020/12/22 02:26:03;;;;;;;5.88;2.80;;;;;;;11.69;100.00;100552.25;5000789;28;20057;-75
2020/12/22 02:28:36;;;;;;;5.75;2.75;;;;;;;11.28;100.00;100484.47;5013649;28;20116;-75
2020/12/22 02:31:04;;;;;;;7.65;2.70;;;;;;;11.79;100.00;100568.97;5011248;28;20040;-76
2020/12/22 02:33:30;;;;;;;9.32;2.70;;;;;;;11.79;100.00;100577.84;5038124;28;20350;-75
2020/12/22 02:35:55;;;;;;;5.78;2.28;;;;;;;11.76;100.00;100563.94;5013011;28;20773;-76
2020/12/22 02:38:21;;;;;;;8.80;2.50;;;;;;;11.56;100.00;100532.22;5028610;28;20037;-76
2020/12/22 02:40:47;;;;;;;7.55;2.08;;;;;;;11.79;100.00;100577.84;4998608;28;20518;-76
2020/12/22 02:43:12;;;;;;;10.38;2.50;;;;;;;11.77;100.00;100568.28;5047951;28;20667;-76
2020/12/22 02:45:38;;;;;;;7.00;2.13;;;;;;;11.59;100.00;100549.75;5027375;28;20111;-76
2020/12/22 02:48:04;;;;;;;5.95;2.40;;;;;;;11.74;100.00;100574.00;5005276;28;20097;-76
2020/12/22 02:50:30;;;;;;;8.82;1.95;;;;;;;11.63;100.00;100557.25;5031101;28;20041;-76
2020/12/22 02:52:55;;;;;;;10.85;2.30;;;;;;;11.70;100.00;100573.47;5004918;28;20068;-75
2020/12/22 02:55:21;;;;;;;8.10;2.33;;;;;;;11.70;100.00;100594.03;5030378;28;20128;-75
2020/12/22 02:57:46;;;;;;;6.82;2.10;;;;;;;11.71;100.00;100593.03;5020977;28;20112;-75
2020/12/22 03:00:12;;;;;;;10.73;3.03;;;;;;;11.71;100.00;100591.19;5018935;28;20128;-76
2020/12/22 03:02:38;;;;;;;11.05;2.55;;;;;;;11.71;100.00;100598.38;5023899;28;20068;-76
2020/12/22 03:05:04;;;;;;;12.45;3.20;;;;;;;11.69;100.00;100592.34;5024104;28;20627;-75
2020/12/22 03:07:29;;;;;;;12.82;2.67;;;;;;;11.57;100.00;100578.47;5024102;28;20626;-76
2020/12/22 03:09:55;;;;;;;12.60;3.08;;;;;;;11.67;100.00;100605.91;5010451;28;20128;-76
2020/12/22 03:12:20;;;;;;;18.83;3.42;;;;;;;11.67;100.00;100594.34;5023863;28;20125;-75
2020/12/22 03:14:46;;;;;;;16.20;3.28;;;;;;;11.69;100.00;100598.53;5004321;28;20124;-75
2020/12/22 03:17:11;;;;;;;12.75;2.83;;;;;;;11.70;100.00;100605.53;5025646;28;20116;-75
2020/12/22 03:19:38;;;;;;;15.48;2.67;;;;;;;11.72;100.00;100589.34;5024163;28;20131;-75
2020/12/22 03:22:06;;;;;;;17.52;2.75;;;;;;;11.70;100.00;100594.84;5022438;28;20069;-75
2020/12/22 03:24:32;;;;;;;12.38;2.85;;;;;;;11.68;100.00;100602.19;5034212;28;20041;-75
2020/12/22 03:26:57;;;;;;;14.73;3.08;;;;;;;11.67;100.00;100594.34;5018542;28;20129;-75
2020/12/22 03:29:23;;;;;;;15.38;3.03;;;;;;;11.67;100.00;100603.22;5045301;28;20116;-75
2020/12/22 03:31:48;;;;;;;16.05;3.20;;;;;;;11.63;100.00;100600.03;5041691;28;20120;-75
2020/12/22 03:34:14;;;;;;;15.20;3.20;;;;;;;11.66;100.00;100609.56;5014457;28;20072;-77
2020/12/22 03:36:39;;;;;;;15.38;2.97;;;;;;;11.63;100.00;100607.22;5022539;28;20069;-76
2020/12/22 03:39:05;;;;;;;17.20;3.08;;;;;;;11.66;100.00;100612.25;5016820;28;20092;-76
2020/12/22 03:41:30;;;;;;;18.35;3.30;;;;;;;11.66;100.00;100612.25;5044007;28;20136;-76
2020/12/22 03:43:56;;;;;;;17.38;3.28;;;;;;;11.51;100.00;100600.53;5025755;28;20128;-76
2020/12/22 03:46:22;;;;;;;16.75;2.88;;;;;;;11.68;100.00;100626.25;5017662;28;20062;-76
2020/12/22 03:48:48;;;;;;;15.45;2.97;;;;;;;11.69;100.00;100624.44;5033491;28;20534;-75
2020/12/22 03:51:13;;;;;;;14.98;3.13;;;;;;;11.69;100.00;100632.44;5058854;28;20119;-74
2020/12/22 03:53:39;;;;;;;12.85;3.25;;;;;;;11.68;100.00;100626.25;5026711;28;20112;-75
2020/12/22 03:56:06;;;;;;;13.70;2.80;;;;;;;11.70;100.00;100621.59;5021656;28;20112;-76
2020/12/22 03:58:32;;;;;;;13.88;2.75;;;;;;;11.58;100.00;100610.41;5034996;28;20032;-76
2020/12/22 04:00:57;;;;;;;17.27;2.92;;;;;;;11.68;100.00;100634.28;5023336;28;20395;-76
2020/12/22 04:03:25;;;;;;;15.57;3.58;;;;;;;11.65;100.00;100626.59;5021068;28;20065;-76
2020/12/22 04:05:50;;;;;;;18.23;3.17;;;;;;;11.65;100.00;100629.28;5016695;28;20033;-75
2020/12/22 04:08:16;;;;;;;16.05;2.72;;;;;;;11.65;100.00;100629.28;5022157;28;20617;-76
2020/12/22 04:10:41;;;;;;;13.18;2.50;;;;;;;11.65;100.00;100634.63;5046367;28;20124;-76
2020/12/22 04:13:07;;;;;;;14.60;2.65;;;;;;;11.65;100.00;100631.94;5046570;28;20128;-76
2020/12/22 04:15:32;;;;;;;14.68;3.00;;;;;;;11.67;100.00;100623.75;5025863;28;20145;-76
2020/12/22 04:17:58;;;;;;;16.25;2.92;;;;;;;11.35;100.00;100575.47;5007506;28;20128;-76
2020/12/22 04:20:23;;;;;;;14.77;3.00;;;;;;;11.63;100.00;100634.78;5028343;28;20045;-76
2020/12/22 04:22:49;;;;;;;12.60;2.70;;;;;;;11.64;100.00;100631.09;5027065;28;20061;-76
2020/12/22 04:25:15;;;;;;;17.85;2.70;;;;;;;11.62;100.00;100630.44;5024551;28;20461;-76
2020/12/22 04:27:40;;;;;;;12.98;2.80;;;;;;;11.57;100.00;100635.44;5024420;28;20125;-76
2020/12/22 04:30:06;;;;;;;14.93;2.78;;;;;;;11.62;100.00;100634.94;5011869;28;20120;-76
2020/12/22 04:32:31;;;;;;;12.57;2.80;;;;;;;11.61;100.00;100650.13;5026493;28;20362;-76
2020/12/22 04:34:57;;;;;;;18.40;2.72;;;;;;;11.60;100.00;100644.97;5018684;28;20115;-76
2020/12/22 04:37:22;;;;;;;16.55;3.15;;;;;;;11.62;100.00;100640.28;5022563;28;20120;-76
2020/12/22 04:39:48;;;;;;;13.52;2.67;;;;;;;11.62;100.00;100657.16;5017963;28;20132;-76
2020/12/22 04:42:14;;;;;;;15.43;2.55;;;;;;;11.45;100.00;100626.91;5006143;28;20128;-76
2020/12/22 04:44:40;;;;;;;17.80;2.97;;;;;;;11.59;100.00;100652.16;5003685;28;20099;-76
2020/12/22 04:47:05;;;;;;;16.67;3.08;;;;;;;11.58;100.00;100650.47;5047572;28;20064;-76
2020/12/22 04:49:32;;;;;;;16.48;2.78;;;;;;;11.40;100.00;100618.53;5002680;28;20108;-77
2020/12/22 04:51:57;;;;;;;14.57;2.70;;;;;;;11.59;100.00;100665.53;5015436;28;20128;-76
2020/12/22 04:54:23;;;;;;;17.15;3.03;;;;;;;11.47;100.00;100659.63;5000006;28;20105;-76
2020/12/22 04:56:48;;;;;;;19.38;3.47;;;;;;;11.56;100.00;100668.53;5010197;28;20647;-76
2020/12/22 04:59:14;;;;;;;15.93;3.15;;;;;;;11.32;100.00;100632.72;5013632;28;20123;-76
2020/12/22 05:01:41;;;;;;;16.52;2.90;;;;;;;11.56;100.00;100689.91;5006633;28;20068;-76
2020/12/22 05:04:09;;;;;;;17.95;3.15;;;;;;;11.56;100.00;100697.91;5015931;28;20444;-76
2020/12/22 05:06:35;;;;;;;16.13;2.90;;;;;;;11.58;100.00;100695.91;5016006;28;20033;-75
2020/12/22 05:09:00;;;;;;;20.58;2.90;;;;;;;11.61;100.00;100695.56;5022986;28;20464;-76
2020/12/22 05:11:27;;;;;;;13.57;3.13;;;;;;;11.13;100.00;100633.81;5024818;28;20586;-77
2020/12/22 05:13:52;;;;;;;16.15;2.50;;;;;;;11.44;100.00;100681.34;5022976;28;20056;-76
2020/12/22 05:16:26;;;;;;;17.17;3.10;;;;;;;11.57;100.00;100704.94;5014890;28;20140;-76
2020/12/22 05:18:56;;;;;;;14.32;2.42;;;;;;;11.49;100.00;100707.56;5024255;28;20033;-76
2020/12/22 05:21:22;;;;;;;14.60;2.55;;;;;;;11.63;100.00;100727.50;4994810;28;20059;-76
2020/12/22 05:23:51;;;;;;;13.13;2.30;;;;;;;11.64;100.00;100724.66;5022326;28;20054;-77
2020/12/22 05:26:21;;;;;;;15.30;3.17;;;;;;;11.65;100.00;100733.53;4984333;28;20033;-76
2020/12/22 05:28:46;;;;;;;16.98;2.45;;;;;;;11.65;99.86;100741.53;5020159;28;20170;-76
2020/12/22 05:31:13;;;;;;;14.43;2.92;;;;;;;11.44;99.96;100710.72;5039259;28;20045;-76
2020/12/22 05:33:45;;;;;;;16.42;3.13;;;;;;;11.44;100.00;100716.06;5025021;28;20055;-77
2020/12/22 05:36:11;;;;;;;11.38;2.45;;;;;;;11.40;100.00;100712.03;5006446;28;20075;-76
2020/12/22 05:38:37;;;;;;;11.30;2.53;;;;;;;11.51;100.00;100742.16;5010170;28;20025;-77
2020/12/22 05:41:06;;;;;;;16.67;2.85;;;;;;;11.39;99.73;100729.09;5023822;28;20570;-76
2020/12/22 05:43:42;;;;;;;14.40;2.47;;;;;;;11.56;100.00;100738.00;4996429;28;20056;-77
2020/12/22 05:46:08;;;;;;;14.65;2.85;;;;;;;11.51;99.97;100745.66;5008934;28;20484;-76
2020/12/22 05:48:34;;;;;;;17.50;3.15;;;;;;;11.60;99.77;100762.56;5008297;28;20038;-76
2020/12/22 05:51:03;;;;;;;14.05;2.55;;;;;;;11.63;99.70;100760.38;4980766;28;20052;-77
2020/12/22 05:53:29;;;;;;;14.75;2.50;;;;;;;11.56;99.67;100755.84;5032357;28;21427;-76
2020/12/22 05:55:55;;;;;;;22.75;3.47;;;;;;;11.69;99.61;100763.44;5004814;28;20106;-76
2020/12/22 05:58:20;;;;;;;15.55;2.83;;;;;;;11.66;99.71;100763.75;4994820;28;20112;-79
2020/12/22 06:00:46;;;;;;;15.73;2.85;;;;;;;11.66;99.73;100761.94;5000228;28;20120;-74
2020/12/22 06:03:15;;;;;;;14.68;2.42;;;;;;;11.55;99.76;100747.00;5035614;28;20536;-76
2020/12/22 06:05:41;;;;;;;10.25;2.00;;;;;;;11.62;99.55;100755.22;5033098;28;20037;-76
2020/12/22 06:08:08;;;;;;;13.35;2.88;;;;;;;11.39;98.92;100717.56;5021233;28;20123;-76
2020/12/22 06:10:35;;;;;;;15.10;2.15;;;;;;;11.57;98.66;100749.50;5020467;28;20036;-76
2020/12/22 06:13:00;;;;;;;10.32;2.28;;;;;;;11.63;99.22;100771.09;5019732;28;20041;-76
2020/12/22 06:15:26;;;;;;;11.60;2.60;;;;;;;11.66;98.50;100774.44;5040447;28;20112;-76
2020/12/22 06:17:51;;;;;;;13.93;2.08;;;;;;;11.68;98.08;100765.25;5039685;28;20065;-76
2020/12/22 06:20:21;;;;;;;10.88;2.40;;;;;;;11.59;98.23;100761.75;5016877;28;20176;-76
2020/12/22 06:22:47;;;;;;;19.33;3.00;;;;;;;11.44;98.75;100748.13;5010171;28;20024;-76
2020/12/22 06:25:12;;;;;;;17.30;2.72;;;;;;;11.60;98.64;100783.94;4994715;28;20053;-76
2020/12/22 06:27:38;;;;;;;11.27;2.55;;;;;;;11.62;98.84;100793.47;5026875;28;20174;-76
2020/12/22 06:30:03;;;;;;;20.23;2.90;;;;;;;11.62;98.25;100787.28;4978546;28;20128;-76
2020/12/22 06:32:29;;;;;;;18.83;3.08;;;;;;;11.61;97.80;100796.31;5044473;28;20136;-76
2020/12/22 06:34:56;;;;;;;16.20;2.78;;;;;;;11.60;98.54;100794.63;5028546;28;20068;-76
2020/12/22 06:37:22;;;;;;;16.85;2.63;;;;;;;11.45;98.24;100786.41;5033953;28;20086;-76
2020/12/22 06:39:49;;;;;;;16.27;3.08;;;;;;;11.15;98.18;100733.31;5015467;28;20099;-76
2020/12/22 06:42:30;;;;;;;17.38;2.72;;;;;;;11.57;98.70;100809.16;4998214;28;20476;-76
2020/12/22 06:45:16;;;;;;;14.68;2.72;;;;;;;11.57;97.92;100816.31;5039784;28;20060;-77
2020/12/22 06:47:41;;;;;;;14.23;2.92;;;;;;;11.56;97.96;100820.84;5035286;28;20091;-76
2020/12/22 06:50:07;;;;;;;13.98;2.97;;;;;;;11.57;98.08;100824.34;5024362;28;20131;-76
2020/12/22 06:52:36;;;;;;;18.38;2.75;;;;;;;11.48;97.93;100812.78;5023268;28;20128;-76
2020/12/22 06:55:11;;;;;;;20.63;3.00;;;;;;;11.41;97.63;100804.56;4989318;28;20040;-77
2020/12/22 06:57:49;;;;;;;18.00;2.67;;;;;;;11.35;97.98;100805.22;5009586;28;20641;-77
2020/12/22 07:00:39;;;;;;;17.02;2.80;;;;;;;11.56;97.31;100830.69;5012764;28;20028;-76
2020/12/22 07:03:11;;;;;;;19.45;2.97;;;;;;;11.56;97.58;100838.69;5030477;28;20157;-77
2020/12/22 07:05:38;;;;;;;16.00;3.33;;;;;;;11.53;97.73;100831.03;4996418;28;20037;-77
2020/12/22 07:08:04;;;;;;;19.90;2.90;;;;;;;11.54;98.34;100835.34;5041172;28;20044;-77
2020/12/22 07:10:30;;;;;;;15.63;2.50;;;;;;;11.38;98.97;100831.63;5029962;28;20091;-77
2020/12/22 07:12:56;;;;;;;19.33;3.25;;;;;;;11.31;99.34;100833.22;5044113;28;20078;-77
2020/12/22 07:15:23;;;;;;;20.63;3.50;;;;;;;11.14;99.68;100818.94;5021432;28;20534;-76
2020/12/22 07:17:49;;;;;;;13.82;2.53;;;;;;;11.38;99.31;100857.47;4990114;28;20041;-78
2020/12/22 07:20:15;;;;;;;22.73;3.28;;;;;;;11.36;99.73;100849.63;5042909;28;20407;-77
2020/12/22 07:22:40;;;;;;;17.27;3.15;;;;;;;11.38;99.50;100862.81;5024264;28;20028;-76
2020/12/22 07:25:07;;;;;;;20.15;3.95;;;;;;;11.14;99.08;100829.63;5029197;28;20128;-77
2020/12/22 07:27:32;;;;;;;22.35;3.38;;;;;;;11.10;99.33;100829.13;5041013;28;20068;-77
2020/12/22 07:29:58;;;;;;;19.02;3.22;;;;;;;11.27;99.22;100859.44;5037133;28;20125;-79
2020/12/22 07:32:24;;;;;;;17.77;3.08;;;;;;;11.21;99.26;100857.38;5021296;28;20124;-77
2020/12/22 07:34:50;;;;;;;14.80;2.75;;;;;;;11.36;98.38;100883.50;5026723;28;20037;-77
2020/12/22 07:37:15;;;;;;;18.50;2.72;;;;;;;11.36;98.71;100883.50;5025588;28;20061;-81
2020/12/22 07:39:41;;;;;;;18.27;3.22;;;;;;;11.21;98.08;100867.22;5051302;28;20645;-77
2020/12/22 07:42:10;;;;;;;17.65;3.40;;;;;;;11.39;98.55;100907.25;5010289;28;20125;-77
2020/12/22 07:44:36;;;;;;;16.73;2.70;;;;;;;11.38;98.28;100910.91;5055427;28;20043;-76
2020/12/22 07:47:02;;;;;;;16.67;3.10;;;;;;;11.40;98.42;100909.75;5042789;28;20124;-82
2020/12/22 07:49:27;;;;;;;23.92;3.17;;;;;;;11.36;97.99;100910.22;5000273;28;20025;-76
2020/12/22 07:51:53;;;;;;;19.90;3.63;;;;;;;11.21;98.56;100893.94;5058320;28;20083;-76
2020/12/22 07:54:18;;;;;;;25.40;4.07;;;;;;;11.41;98.02;100926.66;5032271;28;20114;-77
2020/12/22 07:56:44;;;;;;;25.73;4.28;;;;;;;11.40;97.84;100933.81;5042986;28;20124;-74
2020/12/22 07:59:14;;;;;;;28.55;3.72;;;;;;;11.37;97.80;100934.16;5027259;28;20048;-76
2020/12/22 08:01:44;;;;;;;20.90;3.88;;;;;;;11.39;97.90;100940.19;5033876;28;20060;-76
2020/12/22 08:04:13;;;;;;;30.95;5.07;;;;;;;11.35;98.02;100944.16;5024902;28;20045;-77
2020/12/22 08:06:38;;;;;;;;;;;;;;;11.36;97.33;100967.19;5023414;28;20041;-77
2020/12/22 08:09:04;;;;;;;32.55;5.40;;;;;;;11.36;97.53;100971.69;5022398;28;19924;-77
2020/12/22 08:11:29;;;;;;;29.48;4.47;;;;;;;11.38;97.70;100975.91;5007490;28;20071;-76
2020/12/22 08:13:55;;;;;;;28.80;5.32;;;;;;;11.37;98.36;100974.22;5007376;28;20037;-77
2020/12/22 08:16:21;;;;;;;28.08;5.18;;;;;;;11.33;98.48;100984.34;5018955;28;20076;-78
2020/12/22 08:18:46;;;;;;;30.35;4.90;;;;;;;11.10;98.87;100957.31;4997856;28;20055;-77
2020/12/22 08:21:12;;;;;;;26.83;4.70;;;;;;;11.25;99.05;100994.16;4978189;28;20658;-78
2020/12/22 08:23:37;;;;;;;37.08;5.80;;;;;;;11.11;99.44;100984.84;4983898;28;20047;-78
2020/12/22 08:26:04;;;;;;;40.85;5.50;;;;;;;11.23;99.71;101009.50;4990890;28;20132;-80
2020/12/22 08:28:30;;;;;;;37.58;5.97;;;;;;;11.20;99.76;101009.78;5012415;28;20068;-78
2020/12/22 08:31:05;;;;;;;42.40;5.53;;;;;;;11.20;99.63;101009.78;5002663;28;20132;-78
2020/12/22 08:33:31;;;;;;;38.20;5.80;;;;;;;11.13;100.00;101009.56;4993843;28;20028;-78
2020/12/22 08:35:56;;;;;;;35.88;5.38;;;;;;;11.16;99.75;101020.78;5006329;28;20538;-78
2020/12/22 08:38:25;;;;;;;36.75;6.63;;;;;;;11.20;99.74;101023.16;4998529;28;20041;-79
2020/12/22 08:40:54;;;;;;;38.72;5.25;;;;;;;11.16;100.00;101035.97;5034342;28;20106;-74
2020/12/22 08:43:21;;;;;;;43.15;5.70;;;;;;;11.01;100.00;101028.50;5014467;28;20053;-79
2020/12/22 08:45:47;;;;;;;49.25;8.30;;;;;;;11.12;100.00;101053.28;5005223;28;20035;-78
2020/12/22 08:48:12;;;;;;;41.88;6.55;;;;;;;10.95;100.00;101020.25;5035151;28;20570;-79
2020/12/22 08:50:51;;;;;;;46.35;6.35;;;;;;;11.16;100.00;101054.69;5000745;28;20125;-78
2020/12/22 08:53:17;;;;;;;40.42;6.90;;;;;;;11.15;100.00;101056.50;5028039;28;20036;-79
2020/12/22 08:55:42;;;;;;;42.20;6.78;;;;;;;11.15;100.00;101058.34;5021527;28;20482;-79
2020/12/22 08:58:08;;;;;;;42.67;7.10;;;;;;;11.20;100.00;101063.22;5022449;28;20573;-79
2020/12/22 09:00:34;;;;;;;33.15;5.57;;;;;;;11.20;100.00;101074.72;5025264;28;20069;-78
2020/12/22 09:03:03;;;;;;;29.02;5.03;;;;;;;11.18;99.85;101076.75;5012295;28;20487;-80
2020/12/22 09:05:31;;;;;;;28.23;5.15;;;;;;;11.20;100.00;101085.41;5011710;28;20498;-78
2020/12/22 09:08:00;;;;;;;23.92;4.88;;;;;;;11.03;99.74;101065.72;5031621;28;20091;-78
2020/12/22 09:10:25;;;;;;;32.80;5.75;;;;;;;11.14;99.42;101097.53;5004588;28;20044;-78
2020/12/22 09:12:51;;;;;;;23.38;4.38;;;;;;;11.10;99.20;101104.19;5021691;28;20140;-78
2020/12/22 09:15:16;;;;;;;21.20;3.95;;;;;;;11.06;99.25;101121.50;5012784;28;20597;-78
2020/12/22 09:17:42;;;;;;;23.77;4.18;;;;;;;11.06;99.65;101120.69;5013951;28;20162;-78
2020/12/22 09:20:07;;;;;;;21.48;4.20;;;;;;;11.08;98.74;101127.53;5031601;28;20037;-78
2020/12/22 09:22:33;;;;;;;14.38;3.47;;;;;;;11.03;98.49;101140.50;5000877;28;20825;-78
2020/12/22 09:25:07;;;;;;;19.92;3.72;;;;;;;11.01;98.66;101145.13;5020309;28;20552;-78
2020/12/22 09:27:37;;;;;;;20.33;3.97;;;;;;;10.98;98.18;101148.13;5017265;28;20145;-78
2020/12/22 09:30:20;;;;;;;18.05;3.80;;;;;;;10.69;98.11;101111.72;5001534;28;20037;-78
2020/12/22 09:32:47;;;;;;;22.58;4.30;;;;;;;11.01;97.64;101164.69;5013890;28;20554;-78
2020/12/22 09:35:12;;;;;;;13.85;3.15;;;;;;;10.92;97.79;101167.41;5014083;28;20069;-78
2020/12/22 09:37:38;;;;;;;23.40;4.07;;;;;;;10.97;97.99;101175.81;4985575;28;20143;-79
2020/12/22 09:40:04;;;;;;;21.60;3.58;;;;;;;10.97;97.95;101197.19;5010806;28;20067;-73
2020/12/22 09:42:29;;;;;;;22.40;4.15;;;;;;;10.87;98.31;101195.38;5014692;28;20061;-74
2020/12/22 09:44:55;;;;;;;26.20;4.15;;;;;;;10.80;98.74;101191.63;5000924;28;20029;-73
2020/12/22 09:47:20;;;;;;;21.58;3.85;;;;;;;10.76;99.23;101194.72;5008862;28;20309;-73
2020/12/22 09:49:46;;;;;;;21.40;4.50;;;;;;;10.81;99.07;101203.97;5014484;28;20028;-73
2020/12/22 09:52:11;;;;;;;20.70;3.78;;;;;;;10.85;98.32;101218.72;5021967;28;20085;-73
2020/12/22 09:54:37;;;;;;;24.58;3.95;;;;;;;10.78;98.17;101225.63;5020746;28;20116;-74
2020/12/22 09:57:03;;;;;;;23.80;4.32;;;;;;;10.36;98.69;101172.59;5037726;28;20104;-79
2020/12/22 09:59:28;;;;;;;21.25;3.75;;;;;;;10.68;98.90;101232.81;4990701;28;20122;-79
2020/12/22 10:01:55;;;;;;;20.00;4.00;;;;;;;10.67;98.92;101231.97;5023248;28;20131;-79
2020/12/22 10:04:21;;;;;;;14.70;4.15;;;;;;;10.64;98.03;101234.09;5019714;28;20045;-79
2020/12/22 10:06:48;;;;;;;12.77;4.35;;;;;;;10.60;97.59;101249.56;5017448;28;20136;-79
2020/12/22 10:09:14;;;;;;;8.82;4.28;;;;;;;10.20;97.60;101198.03;4989580;28;20083;-79
2020/12/22 10:11:39;;;;;;;15.60;5.03;;;;;;;10.51;97.50;101261.09;5003142;28;20136;-79
2020/12/22 10:14:05;;;;;;;14.57;5.55;;;;;;;10.41;98.52;101275.25;5001758;28;20140;-78
2020/12/22 10:16:31;;;;;;;15.85;5.70;;;;;;;10.38;98.44;101274.72;5015276;28;20164;-79
2020/12/22 10:18:56;;;;;;;14.48;5.47;;;;;;;10.36;98.94;101276.63;4987904;28;20037;-79
2020/12/22 10:21:22;;;;;;;18.00;7.97;;;;;;;10.27;99.14;101276.50;5019615;28;20057;-79
2020/12/22 10:23:49;;;;;;;25.38;7.57;;;;;;;10.21;98.46;101286.91;5034404;28;20497;-79
2020/12/22 10:26:15;;;;;;;14.63;7.80;;;;;;;10.07;98.39;101259.66;5016944;28;20076;-79
2020/12/22 10:28:41;;;;;;;21.73;9.25;;;;;;;10.06;98.27;101270.44;4993599;28;20514;-78
2020/12/22 10:31:17;;;;;;;26.63;8.93;;;;;;;10.22;98.15;101294.75;5008871;28;20043;-79
2020/12/22 10:33:43;;;;;;;19.40;8.00;;;;;;;10.05;98.54;101276.75;5034678;28;20343;-72
2020/12/22 10:36:15;;;;;;;17.98;7.95;;;;;;;10.27;98.46;101302.31;5001287;28;20413;-74
2020/12/22 10:38:41;;;;;;;22.15;7.05;;;;;;;10.24;98.13;101294.63;5003198;28;20044;-73
2020/12/22 10:41:06;;;;;;;17.65;7.20;;;;;;;10.22;97.01;101294.75;5030739;28;20061;-73
2020/12/22 10:43:32;;;;;;;11.57;6.70;;;;;;;10.24;97.13;101307.97;4991168;28;20059;-74
2020/12/22 10:45:58;;;;;;;16.38;6.80;;;;;;;10.28;97.01;101296.00;5006225;28;20067;-73
2020/12/22 10:48:23;;;;;;;17.27;7.32;;;;;;;10.18;97.07;101287.16;5015614;28;20099;-73
2020/12/22 10:50:49;;;;;;;19.63;8.07;;;;;;;10.21;97.19;101305.56;4989497;28;20052;-74
2020/12/22 10:53:14;;;;;;;18.00;7.55;;;;;;;10.15;97.39;101293.63;4994498;28;20601;-74
2020/12/22 10:55:40;;;;;;;16.05;6.97;;;;;;;9.95;96.99;101271.44;4995466;28;20766;-78
2020/12/22 10:58:05;;;;;;;12.23;6.72;;;;;;;10.15;97.11;101303.44;5014654;28;20037;-79
2020/12/22 11:00:31;;;;;;;17.60;6.85;;;;;;;10.18;97.14;101312.00;4999846;28;20097;-79
2020/12/22 11:03:00;;;;;;;14.75;6.97;;;;;;;10.19;97.17;101313.69;5010260;28;20051;-83
2020/12/22 11:08:10;;;;;;;14.63;6.47;;;;;;;10.09;95.68;101304.84;5012248;28;20075;-78
2020/12/22 11:10:36;;;;;;;16.30;6.47;;;;;;;10.21;95.20;101337.56;5017197;28;20449;-79
2020/12/22 11:13:03;;;;;;;14.82;6.28;;;;;;;10.17;95.60;101330.81;5021744;28;20124;-79
2020/12/22 11:15:28;;;;;;;16.33;5.72;;;;;;;10.20;95.83;101338.56;5041898;28;20041;-79